createdAt,value
2023-05-07T00:02:02.218Z,11.80
2023-05-07T00:04:29.359Z,11.80
2023-05-07T00:06:56.729Z,11.80
2023-05-07T00:09:23.638Z,11.70
2023-05-07T00:11:50.622Z,12.40
2023-05-07T00:14:17.548Z,13.00
2023-05-07T00:16:44.629Z,12.20
2023-05-07T00:19:11.631Z,13.70
2023-05-07T00:21:38.701Z,13.80
2023-05-07T00:24:05.861Z,11.60
2023-05-07T00:26:32.808Z,11.60
2023-05-07T00:28:59.659Z,12.30
2023-05-07T00:31:26.672Z,11.90
2023-05-07T00:33:53.615Z,10.70
2023-05-07T00:36:20.570Z,13.40
2023-05-07T00:38:47.435Z,12.40
2023-05-07T00:41:14.396Z,13.30
2023-05-07T00:43:41.629Z,13.20
2023-05-07T00:46:08.653Z,13.60
2023-05-07T00:48:35.765Z,11.70
2023-05-07T00:51:02.895Z,12.70
2023-05-07T00:53:30.116Z,13.90
2023-05-07T00:55:57.331Z,11.70
2023-05-07T00:58:25.047Z,13.90
2023-05-07T01:00:51.977Z,12.30
2023-05-07T01:03:18.922Z,12.50
2023-05-07T01:05:47.536Z,11.70
2023-05-07T01:08:16.409Z,13.40
2023-05-07T01:10:44.836Z,13.80
2023-05-07T01:13:13.647Z,13.40
2023-05-07T01:15:42.086Z,13.40
2023-05-07T01:18:09.142Z,12.30
2023-05-07T01:20:36.157Z,13.20
2023-05-07T01:23:04.730Z,11.80
2023-05-07T01:25:32.060Z,12.00
2023-05-07T01:28:00.961Z,11.80
2023-05-07T01:30:29.054Z,12.80
2023-05-07T01:33:12.509Z,11.80
2023-05-07T01:35:44.973Z,12.00
2023-05-07T01:38:12.494Z,12.70
2023-05-07T01:40:39.849Z,13.60
2023-05-07T01:43:07.381Z,11.90
2023-05-07T01:45:36.326Z,11.90
2023-05-07T01:48:04.602Z,13.20
2023-05-07T01:50:32.909Z,11.90
2023-05-07T01:52:59.879Z,11.90
2023-05-07T01:55:26.776Z,12.70
2023-05-07T01:57:53.681Z,11.90
2023-05-07T02:00:21.164Z,11.90
2023-05-07T02:02:48.259Z,11.80
2023-05-07T02:05:15.309Z,12.40
2023-05-07T02:07:42.285Z,13.40
2023-05-07T02:10:09.958Z,13.60
2023-05-07T02:12:37.075Z,11.80
2023-05-07T02:15:04.488Z,13.70
2023-05-07T02:17:33.117Z,11.70
2023-05-07T02:20:00.993Z,12.00
2023-05-07T02:22:27.899Z,12.90
2023-05-07T02:24:54.827Z,13.50
2023-05-07T02:27:21.696Z,11.80
2023-05-07T02:29:48.630Z,12.20
2023-05-07T02:32:15.615Z,13.10
2023-05-07T02:34:42.648Z,13.60
2023-05-07T02:37:09.533Z,12.10
2023-05-07T02:39:36.467Z,11.60
2023-05-07T02:42:03.421Z,11.60
2023-05-07T02:44:32.407Z,11.60
2023-05-07T02:46:59.318Z,13.50
2023-05-07T02:49:26.301Z,12.50
2023-05-07T02:51:53.215Z,12.60
2023-05-07T02:54:20.179Z,11.70
2023-05-07T02:56:47.084Z,12.60
2023-05-07T02:59:14.015Z,11.40
2023-05-07T03:01:40.980Z,13.20
2023-05-07T03:04:07.979Z,12.70
2023-05-07T03:06:34.925Z,12.80
2023-05-07T03:09:01.816Z,11.40
2023-05-07T03:11:28.830Z,12.30
2023-05-07T03:13:55.794Z,11.30
2023-05-07T03:16:22.777Z,13.20
2023-05-07T03:18:49.897Z,12.50
2023-05-07T03:21:16.853Z,12.10
2023-05-07T03:23:43.716Z,12.60
2023-05-07T03:26:10.632Z,13.30
2023-05-07T03:28:38.323Z,12.80
2023-05-07T03:31:06.133Z,12.50
2023-05-07T03:33:36.233Z,11.30
2023-05-07T03:36:03.312Z,11.30
2023-05-07T03:38:30.467Z,11.30
2023-05-07T03:40:57.403Z,13.10
2023-05-07T03:43:24.346Z,13.10
2023-05-07T03:45:51.220Z,11.30
2023-05-07T03:48:18.155Z,12.70
2023-05-07T03:50:45.138Z,11.80
2023-05-07T03:53:12.052Z,13.10
2023-05-07T03:55:39.035Z,13.30
2023-05-07T03:58:05.982Z,12.30
2023-05-07T04:00:38.056Z,11.90
2023-05-07T04:03:06.017Z,11.30
2023-05-07T04:05:33.105Z,14.00
2023-05-07T04:08:00.713Z,13.30
2023-05-07T04:10:29.137Z,12.70
2023-05-07T04:12:56.335Z,12.90
2023-05-07T04:15:24.224Z,11.30
2023-05-07T04:17:51.209Z,13.10
2023-05-07T04:20:18.665Z,11.40
2023-05-07T04:22:45.612Z,13.30
2023-05-07T04:25:12.483Z,11.40
2023-05-07T04:27:39.417Z,12.10
2023-05-07T04:30:07.661Z,13.20
2023-05-07T04:32:34.659Z,11.50
2023-05-07T04:35:01.504Z,13.80
2023-05-07T04:37:28.471Z,11.50
2023-05-07T04:39:55.297Z,12.30
2023-05-07T04:42:22.208Z,11.50
2023-05-07T04:44:53.889Z,11.50
2023-05-07T04:47:20.885Z,11.70
2023-05-07T04:49:48.139Z,11.80
2023-05-07T04:52:15.049Z,12.40
2023-05-07T04:54:41.948Z,13.00
2023-05-07T04:57:08.847Z,13.70
2023-05-07T04:59:35.771Z,11.50
2023-05-07T05:02:02.906Z,11.50
2023-05-07T05:04:29.882Z,11.50
2023-05-07T05:06:56.838Z,11.60
2023-05-07T05:09:23.741Z,11.80
2023-05-07T05:11:50.691Z,12.30
2023-05-07T05:14:17.609Z,13.80
2023-05-07T05:16:44.509Z,13.70
2023-05-07T05:19:11.418Z,12.40
2023-05-07T05:21:38.325Z,13.50
2023-05-07T05:24:05.619Z,13.90
2023-05-07T05:26:32.466Z,11.80
2023-05-07T05:28:59.330Z,12.10
2023-05-07T05:31:26.254Z,11.80
2023-05-07T05:33:53.311Z,11.90
2023-05-07T05:36:20.240Z,13.40
2023-05-07T05:38:47.195Z,12.70
2023-05-07T05:41:14.087Z,11.90
2023-05-07T05:43:41.001Z,13.70
2023-05-07T05:46:09.333Z,14.10
2023-05-07T05:48:36.430Z,13.00
2023-05-07T05:51:03.486Z,12.00
2023-05-07T05:53:30.477Z,12.10
2023-05-07T05:55:57.435Z,13.70
2023-05-07T05:58:24.403Z,13.70
2023-05-07T06:00:53.286Z,13.90
2023-05-07T06:03:20.434Z,13.50
2023-05-07T06:05:47.433Z,13.40
2023-05-07T06:08:14.720Z,13.20
2023-05-07T06:10:41.763Z,12.60
2023-05-07T06:13:09.075Z,14.40
2023-05-07T06:15:36.241Z,13.90
2023-05-07T06:18:03.150Z,15.40
2023-05-07T06:20:30.047Z,13.70
2023-05-07T06:22:56.969Z,13.70
2023-05-07T06:25:23.889Z,14.60
2023-05-07T06:27:50.784Z,14.80
2023-05-07T06:30:17.700Z,14.30
2023-05-07T06:32:44.638Z,14.10
2023-05-07T06:35:11.856Z,14.00
2023-05-07T06:37:40.553Z,13.30
2023-05-07T06:40:08.672Z,13.40
2023-05-07T06:42:37.324Z,13.40
2023-05-07T06:45:05.343Z,14.50
2023-05-07T06:47:32.382Z,13.60
2023-05-07T06:49:59.366Z,13.70
2023-05-07T06:52:26.271Z,14.30
2023-05-07T06:54:53.227Z,13.80
2023-05-07T06:57:20.126Z,15.00
2023-05-07T06:59:46.961Z,14.00
2023-05-07T07:02:14.217Z,13.90
2023-05-07T07:04:42.829Z,14.20
2023-05-07T07:07:09.849Z,13.90
2023-05-07T07:09:36.746Z,14.20
2023-05-07T07:12:03.818Z,13.80
2023-05-07T07:14:30.674Z,13.80
2023-05-07T07:16:57.602Z,13.80
2023-05-07T07:19:25.282Z,13.80
2023-05-07T07:21:52.140Z,14.80
2023-05-07T07:24:22.389Z,13.90
2023-05-07T07:26:49.485Z,14.10
2023-05-07T07:29:16.500Z,14.60
2023-05-07T07:31:43.983Z,14.70
2023-05-07T07:34:10.946Z,14.50
2023-05-07T07:36:45.519Z,14.50
2023-05-07T07:39:14.260Z,14.00
2023-05-07T07:41:41.217Z,14.00
2023-05-07T07:44:09.657Z,14.60
2023-05-07T07:46:37.068Z,14.70
2023-05-07T07:49:04.070Z,14.20
2023-05-07T07:51:31.485Z,14.60
2023-05-07T07:53:58.789Z,14.30
2023-05-07T07:56:27.111Z,14.50
2023-05-07T07:58:53.992Z,14.50
2023-05-07T08:01:20.941Z,14.60
2023-05-07T08:03:47.979Z,14.70
2023-05-07T08:06:15.270Z,14.80
2023-05-07T08:08:42.300Z,14.90
2023-05-07T08:11:09.278Z,14.90
2023-05-07T08:13:36.747Z,15.00
2023-05-07T08:16:04.042Z,15.30
2023-05-07T08:18:31.050Z,15.10
2023-05-07T08:20:58.139Z,15.20
2023-05-07T08:23:24.989Z,15.30
2023-05-07T08:25:52.292Z,16.40
2023-05-07T08:28:20.398Z,15.40
2023-05-07T08:30:47.668Z,15.50
2023-05-07T08:33:14.622Z,16.40
2023-05-07T08:35:41.651Z,15.70
2023-05-07T08:38:08.698Z,15.70
2023-05-07T08:40:41.876Z,15.80
2023-05-07T08:43:09.061Z,15.80
2023-05-07T08:45:37.078Z,16.10
2023-05-07T08:48:06.885Z,16.40
2023-05-07T08:50:37.453Z,16.10
2023-05-07T08:53:05.714Z,16.20
2023-05-07T08:55:34.313Z,16.20
2023-05-07T08:58:02.288Z,16.30
2023-05-07T09:00:29.146Z,16.40
2023-05-07T09:02:56.097Z,16.50
2023-05-07T09:05:23.075Z,16.60
2023-05-07T09:07:53.948Z,16.90
2023-05-07T09:10:22.622Z,16.80
2023-05-07T09:12:49.842Z,16.90
2023-05-07T09:15:17.042Z,17.00
2023-05-07T09:17:44.829Z,17.10
2023-05-07T09:20:12.028Z,17.40
2023-05-07T09:22:39.466Z,17.30
2023-05-07T09:25:09.529Z,17.30
2023-05-07T09:27:36.758Z,17.40
2023-05-07T09:30:08.156Z,17.40
2023-05-07T09:32:41.327Z,17.50
2023-05-07T09:35:17.979Z,17.50
2023-05-07T09:37:45.145Z,17.70
2023-05-07T09:40:30.821Z,17.60
2023-05-07T09:43:10.094Z,17.80
2023-05-07T09:45:38.454Z,17.90
2023-05-07T09:48:08.263Z,18.10
2023-05-07T09:50:51.089Z,18.20
2023-05-07T09:53:18.793Z,18.30
2023-05-07T09:55:47.179Z,18.40
2023-05-07T09:58:16.045Z,18.50
2023-05-07T10:00:43.678Z,18.50
2023-05-07T10:03:11.948Z,18.50
2023-05-07T10:05:39.274Z,18.60
2023-05-07T10:08:07.463Z,19.00
2023-05-07T10:10:35.259Z,19.20
2023-05-07T10:13:06.911Z,19.40
2023-05-07T10:15:35.714Z,19.60
2023-05-07T10:18:04.863Z,19.90
2023-05-07T10:20:34.441Z,20.10
2023-05-07T10:23:05.258Z,20.20
2023-05-07T10:25:33.551Z,20.30
2023-05-07T10:28:09.816Z,20.40
2023-05-07T10:31:03.979Z,20.40
2023-05-07T10:33:32.615Z,20.70
2023-05-07T10:36:03.827Z,20.90
2023-05-07T10:38:31.060Z,21.10
2023-05-07T10:40:58.128Z,21.40
2023-05-07T10:43:25.936Z,21.70
2023-05-07T10:46:20.511Z,21.90
2023-05-07T10:49:07.064Z,22.30
2023-05-07T10:51:35.277Z,22.60
2023-05-07T10:54:11.588Z,22.80
2023-05-07T10:56:45.001Z,23.10
2023-05-07T10:59:31.613Z,23.30
2023-05-07T11:02:03.522Z,23.50
2023-05-07T11:04:32.573Z,23.70
2023-05-07T11:07:26.378Z,23.80
2023-05-07T11:09:53.322Z,24.00
2023-05-07T11:12:39.164Z,24.10
2023-05-07T11:15:10.998Z,24.20
2023-05-07T11:17:56.686Z,24.50
2023-05-07T11:20:52.634Z,24.70
2023-05-07T11:23:34.825Z,25.10
2023-05-07T11:26:04.610Z,25.50
2023-05-07T11:28:37.972Z,25.60
2023-05-07T11:31:05.843Z,25.70
2023-05-07T11:33:33.246Z,25.70
2023-05-07T11:36:01.796Z,25.90
2023-05-07T11:38:30.615Z,25.90
2023-05-07T11:41:01.601Z,26.00
2023-05-07T11:43:29.258Z,26.20
2023-05-07T11:45:56.321Z,26.40
2023-05-07T11:48:23.797Z,26.60
2023-05-07T11:51:01.941Z,26.50
2023-05-07T11:53:40.207Z,26.80
2023-05-07T11:56:12.281Z,27.10
2023-05-07T11:58:41.242Z,27.40
2023-05-07T12:01:13.245Z,27.70
2023-05-07T12:03:46.978Z,27.90
2023-05-07T12:06:19.247Z,28.00
2023-05-07T12:08:48.318Z,28.10
2023-05-07T12:11:26.264Z,28.20
2023-05-07T12:13:59.096Z,28.30
2023-05-07T12:16:27.756Z,28.10
2023-05-07T12:18:56.279Z,28.30
2023-05-07T12:21:24.183Z,28.20
2023-05-07T12:23:51.483Z,28.10
2023-05-07T12:26:20.518Z,27.70
2023-05-07T12:28:47.564Z,27.60
2023-05-07T12:31:16.082Z,27.30
2023-05-07T12:33:43.949Z,27.00
2023-05-07T12:36:14.761Z,26.80
2023-05-07T12:38:42.172Z,26.80
2023-05-07T12:41:13.237Z,26.90
2023-05-07T12:43:40.185Z,27.10
2023-05-07T12:46:09.331Z,27.10
2023-05-07T12:48:47.222Z,26.90
2023-05-07T12:51:16.069Z,26.70
2023-05-07T12:53:43.922Z,26.60
2023-05-07T12:56:11.038Z,26.50
2023-05-07T12:58:38.124Z,25.80
2023-05-07T13:01:10.961Z,25.20
2023-05-07T13:03:39.458Z,24.90
2023-05-07T13:06:11.576Z,24.80
2023-05-07T13:08:43.782Z,24.80
2023-05-07T13:11:12.108Z,24.70
2023-05-07T13:13:40.981Z,24.50
2023-05-07T13:16:11.458Z,24.50
2023-05-07T13:18:41.408Z,24.40
2023-05-07T13:21:08.789Z,24.40
2023-05-07T13:23:35.796Z,24.30
2023-05-07T13:26:08.654Z,24.10
2023-05-07T13:28:42.955Z,23.90
2023-05-07T13:31:09.925Z,23.90
2023-05-07T13:33:36.850Z,23.80
2023-05-07T13:36:06.575Z,24.00
2023-05-07T13:38:33.496Z,24.40
2023-05-07T13:41:00.413Z,24.70
2023-05-07T13:43:27.315Z,25.10
2023-05-07T13:45:54.235Z,25.30
2023-05-07T13:48:21.172Z,25.50
2023-05-07T13:50:48.127Z,25.70
2023-05-07T13:53:18.936Z,26.00
2023-05-07T13:55:46.440Z,26.50
2023-05-07T13:58:13.333Z,27.00
2023-05-07T14:00:40.308Z,27.50
2023-05-07T14:03:07.320Z,27.90
2023-05-07T14:05:34.301Z,28.20
2023-05-07T14:08:01.291Z,28.40
2023-05-07T14:10:28.363Z,28.50
2023-05-07T14:12:55.977Z,28.20
2023-05-07T14:15:22.890Z,28.10
2023-05-07T14:17:50.001Z,28.20
2023-05-07T14:20:16.943Z,28.30
2023-05-07T14:22:43.888Z,28.60
2023-05-07T14:25:11.048Z,28.70
2023-05-07T14:27:38.231Z,28.90
2023-05-07T14:30:06.135Z,28.70
2023-05-07T14:32:34.407Z,28.40
2023-05-07T14:35:01.492Z,28.30
2023-05-07T14:37:29.242Z,28.40
2023-05-07T14:39:56.455Z,28.40
2023-05-07T14:42:23.359Z,28.50
2023-05-07T14:44:50.443Z,28.80
2023-05-07T14:47:19.072Z,29.00
2023-05-07T14:49:46.647Z,29.40
2023-05-07T14:52:13.695Z,29.80
2023-05-07T14:54:40.754Z,30.10
2023-05-07T14:57:10.876Z,30.10
2023-05-07T14:59:39.268Z,29.90
2023-05-07T15:02:08.907Z,29.90
2023-05-07T15:04:36.188Z,29.80
2023-05-07T15:07:03.183Z,30.00
2023-05-07T15:09:30.864Z,30.30
2023-05-07T15:11:57.779Z,30.60
2023-05-07T15:14:24.700Z,30.80
2023-05-07T15:16:51.682Z,31.10
2023-05-07T15:19:18.738Z,31.20
2023-05-07T15:21:45.733Z,31.40
2023-05-07T15:24:12.667Z,31.40
2023-05-07T15:26:39.548Z,31.70
2023-05-07T15:29:11.114Z,31.90
2023-05-07T15:31:39.670Z,32.00
2023-05-07T15:34:07.248Z,31.90
2023-05-07T15:36:34.309Z,32.00
2023-05-07T15:39:03.026Z,32.20
2023-05-07T15:41:30.128Z,32.40
2023-05-07T15:43:57.053Z,32.40
2023-05-07T15:46:25.859Z,32.50
2023-05-07T15:48:54.130Z,32.60
2023-05-07T15:51:21.947Z,32.70
2023-05-07T15:53:50.161Z,32.70
2023-05-07T15:56:17.097Z,32.70
2023-05-07T15:58:44.073Z,32.70
2023-05-07T16:01:11.128Z,32.70
2023-05-07T16:03:39.100Z,32.70
2023-05-07T16:06:06.573Z,32.60
2023-05-07T16:08:34.004Z,32.50
2023-05-07T16:11:01.165Z,32.40
2023-05-07T16:13:28.236Z,32.20
2023-05-07T16:15:59.440Z,32.00
2023-05-07T16:18:26.799Z,31.80
2023-05-07T16:20:54.556Z,31.60
2023-05-07T16:23:22.278Z,31.30
2023-05-07T16:25:50.114Z,31.30
2023-05-07T16:28:17.092Z,31.10
2023-05-07T16:30:44.326Z,31.00
2023-05-07T16:33:11.212Z,30.90
2023-05-07T16:35:38.122Z,30.70
2023-05-07T16:38:09.944Z,30.20
2023-05-07T16:40:40.539Z,29.90
2023-05-07T16:43:07.618Z,29.50
2023-05-07T16:45:34.602Z,29.10
2023-05-07T16:48:03.092Z,28.20
2023-05-07T16:50:30.483Z,27.30
2023-05-07T16:52:57.403Z,26.40
2023-05-07T16:55:24.425Z,25.40
2023-05-07T16:57:51.364Z,24.50
2023-05-07T17:00:18.466Z,23.70
2023-05-07T17:02:46.842Z,23.00
2023-05-07T17:05:14.222Z,22.50
2023-05-07T17:07:41.506Z,22.00
2023-05-07T17:10:09.308Z,21.60
2023-05-07T17:12:37.451Z,21.20
2023-05-07T17:15:05.214Z,20.70
2023-05-07T17:17:32.757Z,20.40
2023-05-07T17:20:00.071Z,20.10
2023-05-07T17:22:27.298Z,19.80
2023-05-07T17:24:54.302Z,19.50
2023-05-07T17:27:21.326Z,19.40
2023-05-07T17:29:48.288Z,19.10
2023-05-07T17:32:15.485Z,18.90
2023-05-07T17:34:42.782Z,18.60
2023-05-07T17:37:09.789Z,18.50
2023-05-07T17:39:36.946Z,18.30
2023-05-07T17:42:04.011Z,18.20
2023-05-07T17:44:31.048Z,18.10
2023-05-07T17:46:58.072Z,17.90
2023-05-07T17:49:25.036Z,17.80
2023-05-07T17:51:55.246Z,17.70
2023-05-07T17:54:25.986Z,17.50
2023-05-07T17:56:53.125Z,17.30
2023-05-07T17:59:20.106Z,17.20
2023-05-07T18:01:47.204Z,17.10
2023-05-07T18:04:14.307Z,17.00
2023-05-07T18:06:42.119Z,16.90
2023-05-07T18:09:09.155Z,16.80
2023-05-07T18:11:37.300Z,16.70
2023-05-07T18:14:04.334Z,16.60
2023-05-07T18:16:31.365Z,16.50
2023-05-07T18:18:58.359Z,16.50
2023-05-07T18:21:25.369Z,16.50
2023-05-07T18:23:52.309Z,16.30
2023-05-07T18:26:19.210Z,16.30
2023-05-07T18:28:46.364Z,16.50
2023-05-07T18:31:13.410Z,16.10
2023-05-07T18:33:40.408Z,16.00
2023-05-07T18:36:07.270Z,15.80
2023-05-07T18:38:34.282Z,15.70
2023-05-07T18:41:05.830Z,16.10
2023-05-07T18:43:33.957Z,15.60
2023-05-07T18:46:01.232Z,15.60
2023-05-07T18:48:28.359Z,15.50
2023-05-07T18:50:55.509Z,16.20
2023-05-07T18:53:22.694Z,15.50
2023-05-07T18:55:53.055Z,15.30
2023-05-07T18:58:20.284Z,15.30
2023-05-07T19:00:48.252Z,15.20
2023-05-07T19:03:16.323Z,15.20
2023-05-07T19:05:44.372Z,15.00
2023-05-07T19:08:11.824Z,15.00
2023-05-07T19:10:38.852Z,14.90
2023-05-07T19:13:05.972Z,14.90
2023-05-07T19:15:33.096Z,14.80
2023-05-07T19:18:00.346Z,14.80
2023-05-07T19:20:27.556Z,14.80
2023-05-07T19:22:54.575Z,14.80
2023-05-07T19:25:21.720Z,14.60
2023-05-07T19:27:48.696Z,14.60
2023-05-07T19:30:15.752Z,14.60
2023-05-07T19:32:42.741Z,14.60
2023-05-07T19:35:09.897Z,14.60
2023-05-07T19:37:36.796Z,14.80
2023-05-07T19:40:04.969Z,14.60
2023-05-07T19:42:32.747Z,14.60
2023-05-07T19:44:59.719Z,15.00
2023-05-07T19:47:27.075Z,14.70
2023-05-07T19:49:54.177Z,14.80
2023-05-07T19:52:21.136Z,14.80
2023-05-07T19:54:48.124Z,14.70
2023-05-07T19:57:17.439Z,14.70
2023-05-07T19:59:44.452Z,14.90
2023-05-07T20:02:12.128Z,14.70
2023-05-07T20:04:39.076Z,14.70
2023-05-07T20:07:06.251Z,14.70
2023-05-07T20:09:33.425Z,15.20
2023-05-07T20:12:00.442Z,14.60
2023-05-07T20:14:27.759Z,14.60
2023-05-07T20:16:54.824Z,15.40
2023-05-07T20:19:21.872Z,15.20
2023-05-07T20:21:49.021Z,15.20
2023-05-07T20:24:19.161Z,15.00
2023-05-07T20:26:46.783Z,14.90
2023-05-07T20:29:13.730Z,15.70
2023-05-07T20:31:41.290Z,14.50
2023-05-07T20:34:08.362Z,14.40
2023-05-07T20:36:36.607Z,14.40
2023-05-07T20:39:04.242Z,14.40
2023-05-07T20:41:31.250Z,14.40
2023-05-07T20:43:58.476Z,14.50
2023-05-07T20:46:27.433Z,14.50
2023-05-07T20:48:54.901Z,14.40
2023-05-07T20:51:21.916Z,14.20
2023-05-07T20:53:48.828Z,14.50
2023-05-07T20:56:15.960Z,14.70
2023-05-07T20:58:42.982Z,14.10
2023-05-07T21:01:09.942Z,14.00
2023-05-07T21:03:36.919Z,14.80
2023-05-07T21:06:04.335Z,13.90
2023-05-07T21:08:31.608Z,13.90
2023-05-07T21:10:59.294Z,14.20
2023-05-07T21:13:26.488Z,13.80
2023-05-07T21:15:53.607Z,13.70
2023-05-07T21:18:21.784Z,13.70
2023-05-07T21:20:48.664Z,13.90
2023-05-07T21:23:15.615Z,14.50
2023-05-07T21:25:47.060Z,14.40
2023-05-07T21:28:14.251Z,13.90
2023-05-07T21:30:41.173Z,14.80
2023-05-07T21:33:08.725Z,13.60
2023-05-07T21:35:36.716Z,14.30
2023-05-07T21:38:03.856Z,13.50
2023-05-07T21:40:30.993Z,13.70
2023-05-07T21:43:00.312Z,13.50
2023-05-07T21:45:27.322Z,13.40
2023-05-07T21:47:54.369Z,14.20
2023-05-07T21:50:22.136Z,14.30
2023-05-07T21:52:49.797Z,13.40
2023-05-07T21:55:18.775Z,13.30
2023-05-07T21:57:53.705Z,13.30
2023-05-07T22:00:25.282Z,13.80
2023-05-07T22:02:52.429Z,13.20
2023-05-07T22:05:19.600Z,13.20
2023-05-07T22:07:46.502Z,13.20
2023-05-07T22:10:13.762Z,13.20
2023-05-07T22:12:41.113Z,14.30
2023-05-07T22:15:08.656Z,13.80
2023-05-07T22:17:35.641Z,13.20
2023-05-07T22:20:02.808Z,13.80
2023-05-07T22:22:29.712Z,13.30
2023-05-07T22:24:56.621Z,13.10
2023-05-07T22:27:23.542Z,13.40
2023-05-07T22:29:50.590Z,13.10
2023-05-07T22:32:17.679Z,13.10
2023-05-07T22:34:44.575Z,13.10
2023-05-07T22:37:11.517Z,13.70
2023-05-07T22:39:38.528Z,13.10
2023-05-07T22:42:05.595Z,13.10
2023-05-07T22:44:32.538Z,13.00
2023-05-07T22:46:59.479Z,13.00
2023-05-07T22:49:26.463Z,13.50
2023-05-07T22:51:53.504Z,13.70
2023-05-07T22:54:20.566Z,12.90
2023-05-07T22:56:47.507Z,14.60
2023-05-07T22:59:15.212Z,13.30
2023-05-07T23:01:42.269Z,13.40
2023-05-07T23:04:09.184Z,14.60
2023-05-07T23:06:36.112Z,13.40
2023-05-07T23:09:04.188Z,13.40
2023-05-07T23:11:31.423Z,12.70
2023-05-07T23:13:58.326Z,12.90
2023-05-07T23:16:25.760Z,13.60
2023-05-07T23:18:52.783Z,12.70
2023-05-07T23:21:19.829Z,13.80
2023-05-07T23:23:47.778Z,12.20
2023-05-07T23:26:15.040Z,13.40
2023-05-07T23:28:41.983Z,13.20
2023-05-07T23:31:10.077Z,13.30
2023-05-07T23:33:37.832Z,12.00
2023-05-07T23:36:07.327Z,12.50
2023-05-07T23:38:34.455Z,11.70
2023-05-07T23:41:01.420Z,12.40
2023-05-07T23:43:28.345Z,12.50
2023-05-07T23:45:55.362Z,12.60
2023-05-07T23:48:22.331Z,13.40
2023-05-07T23:50:49.290Z,13.10
2023-05-07T23:53:16.250Z,11.30
2023-05-07T23:55:43.272Z,12.50
2023-05-07T23:58:10.471Z,11.20
